sensor_id;sensor_type;location;lat;lon;timestamp;temperature;humidity
63960;DHT22;50136;51.374;0.096;2023-02-01T00:01:49;6.10;99.90
63960;DHT22;50136;51.374;0.096;2023-02-01T00:11:52;6.00;99.90
63960;DHT22;50136;51.374;0.096;2023-02-01T00:21:54;5.90;99.90
63960;DHT22;50136;51.374;0.096;2023-02-01T00:31:58;5.80;99.90
63960;DHT22;50136;51.374;0.096;2023-02-01T00:42:00;5.80;99.90
63960;DHT22;50136;51.374;0.096;2023-02-01T00:52:04;5.70;99.90
63960;DHT22;50136;51.374;0.096;2023-02-01T01:02:06;5.60;99.90
63960;DHT22;50136;51.374;0.096;2023-02-01T01:12:09;5.60;99.90
63960;DHT22;50136;51.374;0.096;2023-02-01T01:22:11;5.60;99.90
63960;DHT22;50136;51.374;0.096;2023-02-01T01:32:14;5.60;99.90
63960;DHT22;50136;51.374;0.096;2023-02-01T01:42:16;5.60;99.90
63960;DHT22;50136;51.374;0.096;2023-02-01T01:52:20;5.70;99.90
63960;DHT22;50136;51.374;0.096;2023-02-01T02:02:22;5.70;99.90
63960;DHT22;50136;51.374;0.096;2023-02-01T02:12:26;5.70;99.90
63960;DHT22;50136;51.374;0.096;2023-02-01T02:22:48;5.70;99.90
63960;DHT22;50136;51.374;0.096;2023-02-01T02:43:39;5.70;99.90
63960;DHT22;50136;51.374;0.096;2023-02-01T02:53:51;5.80;99.90
63960;DHT22;50136;51.374;0.096;2023-02-01T03:03:57;5.80;99.90
63960;DHT22;50136;51.374;0.096;2023-02-01T03:14:02;5.90;99.90
63960;DHT22;50136;51.374;0.096;2023-02-01T03:24:11;6.20;99.90
63960;DHT22;50136;51.374;0.096;2023-02-01T03:34:15;6.30;99.90
63960;DHT22;50136;51.374;0.096;2023-02-01T03:44:21;6.20;99.90
63960;DHT22;50136;51.374;0.096;2023-02-01T03:54:27;6.10;99.90
63960;DHT22;50136;51.374;0.096;2023-02-01T04:04:30;6.10;99.90
63960;DHT22;50136;51.374;0.096;2023-02-01T04:14:33;6.10;99.90
63960;DHT22;50136;51.374;0.096;2023-02-01T04:24:35;6.00;99.90
63960;DHT22;50136;51.374;0.096;2023-02-01T04:34:38;6.00;99.90
63960;DHT22;50136;51.374;0.096;2023-02-01T04:44:40;6.00;99.90
63960;DHT22;50136;51.374;0.096;2023-02-01T04:54:44;6.00;99.90
63960;DHT22;50136;51.374;0.096;2023-02-01T05:04:46;6.10;99.90
63960;DHT22;50136;51.374;0.096;2023-02-01T05:14:49;6.10;99.90
63960;DHT22;50136;51.374;0.096;2023-02-01T05:24:51;6.00;99.90
63960;DHT22;50136;51.374;0.096;2023-02-01T05:34:54;6.00;99.90
63960;DHT22;50136;51.374;0.096;2023-02-01T05:44:56;6.10;99.90
63960;DHT22;50136;51.374;0.096;2023-02-01T05:55:00;6.10;99.90
63960;DHT22;50136;51.374;0.096;2023-02-01T06:05:02;6.20;99.90
63960;DHT22;50136;51.374;0.096;2023-02-01T06:15:06;6.20;99.90
63960;DHT22;50136;51.374;0.096;2023-02-01T06:25:09;6.10;99.90
63960;DHT22;50136;51.374;0.096;2023-02-01T06:35:13;6.10;99.90
63960;DHT22;50136;51.374;0.096;2023-02-01T06:45:15;6.10;99.90
63960;DHT22;50136;51.374;0.096;2023-02-01T06:55:18;6.10;99.90
63960;DHT22;50136;51.374;0.096;2023-02-01T07:05:21;6.10;99.90
63960;DHT22;50136;51.374;0.096;2023-02-01T07:15:24;6.10;99.90
63960;DHT22;50136;51.374;0.096;2023-02-01T07:25:26;6.10;99.90
63960;DHT22;50136;51.374;0.096;2023-02-01T07:35:30;6.20;99.90
63960;DHT22;50136;51.374;0.096;2023-02-01T07:45:32;6.20;99.90
63960;DHT22;50136;51.374;0.096;2023-02-01T07:55:39;6.30;99.90
63960;DHT22;50136;51.374;0.096;2023-02-01T08:05:42;6.40;99.90
63960;DHT22;50136;51.374;0.096;2023-02-01T08:15:45;6.30;99.90
63960;DHT22;50136;51.374;0.096;2023-02-01T08:25:47;6.40;99.90
63960;DHT22;50136;51.374;0.096;2023-02-01T08:35:50;6.30;99.90
63960;DHT22;50136;51.374;0.096;2023-02-01T08:45:54;6.60;99.90
63960;DHT22;50136;51.374;0.096;2023-02-01T08:55:59;6.80;99.90
63960;DHT22;50136;51.374;0.096;2023-02-01T09:06:01;6.80;99.90
63960;DHT22;50136;51.374;0.096;2023-02-01T09:16:05;6.90;99.90
63960;DHT22;50136;51.374;0.096;2023-02-01T09:26:08;8.10;99.90
63960;DHT22;50136;51.374;0.096;2023-02-01T09:36:12;9.60;99.90
63960;DHT22;50136;51.374;0.096;2023-02-01T09:46:21;10.70;99.90
63960;DHT22;50136;51.374;0.096;2023-02-01T09:56:33;10.50;99.90
63960;DHT22;50136;51.374;0.096;2023-02-01T10:06:47;10.30;99.90
63960;DHT22;50136;51.374;0.096;2023-02-01T10:16:59;11.70;99.90
63960;DHT22;50136;51.374;0.096;2023-02-01T10:27:14;12.20;99.90
63960;DHT22;50136;51.374;0.096;2023-02-01T10:37:32;12.60;99.90
63960;DHT22;50136;51.374;0.096;2023-02-01T10:47:57;12.70;99.90
63960;DHT22;50136;51.374;0.096;2023-02-01T10:58:02;12.30;99.90
63960;DHT22;50136;51.374;0.096;2023-02-01T11:19:15;10.90;99.90
63960;DHT22;50136;51.374;0.096;2023-02-01T11:29:19;10.10;99.90
63960;DHT22;50136;51.374;0.096;2023-02-01T11:39:26;10.80;99.90
63960;DHT22;50136;51.374;0.096;2023-02-01T11:49:29;10.80;99.90
63960;DHT22;50136;51.374;0.096;2023-02-01T11:59:58;10.20;99.90
63960;DHT22;50136;51.374;0.096;2023-02-01T12:10:16;10.10;99.90
63960;DHT22;50136;51.374;0.096;2023-02-01T12:20:42;9.70;99.90
63960;DHT22;50136;51.374;0.096;2023-02-01T12:31:03;9.70;99.90
63960;DHT22;50136;51.374;0.096;2023-02-01T12:41:31;9.80;99.90
63960;DHT22;50136;51.374;0.096;2023-02-01T12:51:38;10.10;99.90
63960;DHT22;50136;51.374;0.096;2023-02-01T13:12:44;10.50;99.90
63960;DHT22;50136;51.374;0.096;2023-02-01T13:22:54;10.40;99.90
63960;DHT22;50136;51.374;0.096;2023-02-01T13:33:26;10.80;99.90
63960;DHT22;50136;51.374;0.096;2023-02-01T13:43:54;11.10;99.90
63960;DHT22;50136;51.374;0.096;2023-02-01T13:53:56;11.00;99.90
63960;DHT22;50136;51.374;0.096;2023-02-01T14:04:01;10.90;99.90
63960;DHT22;50136;51.374;0.096;2023-02-01T14:24:50;10.90;99.90
63960;DHT22;50136;51.374;0.096;2023-02-01T14:34:54;11.10;99.90
63960;DHT22;50136;51.374;0.096;2023-02-01T14:55:38;11.00;99.90
63960;DHT22;50136;51.374;0.096;2023-02-01T15:05:42;10.90;99.90
63960;DHT22;50136;51.374;0.096;2023-02-01T15:16:00;11.10;99.90
63960;DHT22;50136;51.374;0.096;2023-02-01T15:26:02;11.10;99.90
63960;DHT22;50136;51.374;0.096;2023-02-01T15:36:10;10.90;99.90
63960;DHT22;50136;51.374;0.096;2023-02-01T15:46:14;10.70;99.90
63960;DHT22;50136;51.374;0.096;2023-02-01T15:56:23;10.50;99.90
63960;DHT22;50136;51.374;0.096;2023-02-01T16:06:28;10.50;99.90
63960;DHT22;50136;51.374;0.096;2023-02-01T16:16:31;10.30;99.90
63960;DHT22;50136;51.374;0.096;2023-02-01T16:26:34;10.20;99.90
63960;DHT22;50136;51.374;0.096;2023-02-01T16:36:37;10.10;99.90
63960;DHT22;50136;51.374;0.096;2023-02-01T16:46:43;9.90;99.90
63960;DHT22;50136;51.374;0.096;2023-02-01T16:57:12;9.90;99.90
63960;DHT22;50136;51.374;0.096;2023-02-01T17:07:29;9.80;99.90
63960;DHT22;50136;51.374;0.096;2023-02-01T17:17:35;9.70;99.90
63960;DHT22;50136;51.374;0.096;2023-02-01T17:27:40;9.70;99.90
63960;DHT22;50136;51.374;0.096;2023-02-01T17:37:43;9.70;99.90
63960;DHT22;50136;51.374;0.096;2023-02-01T17:47:45;9.60;99.90
63960;DHT22;50136;51.374;0.096;2023-02-01T18:09:03;9.50;99.90
63960;DHT22;50136;51.374;0.096;2023-02-01T18:19:06;9.30;99.90
63960;DHT22;50136;51.374;0.096;2023-02-01T18:29:10;9.30;99.90
63960;DHT22;50136;51.374;0.096;2023-02-01T18:39:12;9.30;99.90
63960;DHT22;50136;51.374;0.096;2023-02-01T18:49:15;9.20;99.90
63960;DHT22;50136;51.374;0.096;2023-02-01T18:59:17;9.10;99.90
63960;DHT22;50136;51.374;0.096;2023-02-01T19:09:20;8.90;99.90
63960;DHT22;50136;51.374;0.096;2023-02-01T19:19:22;8.90;99.90
63960;DHT22;50136;51.374;0.096;2023-02-01T19:29:26;8.80;99.90
63960;DHT22;50136;51.374;0.096;2023-02-01T19:39:40;8.70;99.90
63960;DHT22;50136;51.374;0.096;2023-02-01T19:49:44;8.70;99.90
63960;DHT22;50136;51.374;0.096;2023-02-01T19:59:46;8.70;99.90
63960;DHT22;50136;51.374;0.096;2023-02-01T20:20:56;8.50;99.90
63960;DHT22;50136;51.374;0.096;2023-02-01T20:30:59;8.40;99.90
63960;DHT22;50136;51.374;0.096;2023-02-01T20:41:04;8.40;99.90
63960;DHT22;50136;51.374;0.096;2023-02-01T20:51:07;8.40;99.90
63960;DHT22;50136;51.374;0.096;2023-02-01T21:01:11;8.30;99.90
63960;DHT22;50136;51.374;0.096;2023-02-01T21:11:14;8.30;99.90
63960;DHT22;50136;51.374;0.096;2023-02-01T21:21:17;8.30;99.90
63960;DHT22;50136;51.374;0.096;2023-02-01T21:31:22;8.40;99.90
63960;DHT22;50136;51.374;0.096;2023-02-01T21:41:25;8.50;99.90
63960;DHT22;50136;51.374;0.096;2023-02-01T21:51:27;8.60;99.90
63960;DHT22;50136;51.374;0.096;2023-02-01T22:01:31;8.70;99.90
63960;DHT22;50136;51.374;0.096;2023-02-01T22:11:33;8.80;99.90
63960;DHT22;50136;51.374;0.096;2023-02-01T22:21:36;8.80;99.90
63960;DHT22;50136;51.374;0.096;2023-02-01T22:31:39;8.70;99.90
63960;DHT22;50136;51.374;0.096;2023-02-01T22:41:42;8.70;99.90
63960;DHT22;50136;51.374;0.096;2023-02-01T22:51:44;8.50;99.90
63960;DHT22;50136;51.374;0.096;2023-02-01T23:01:47;8.30;99.90
63960;DHT22;50136;51.374;0.096;2023-02-01T23:11:49;8.20;99.90
63960;DHT22;50136;51.374;0.096;2023-02-01T23:21:53;8.20;99.90
63960;DHT22;50136;51.374;0.096;2023-02-01T23:31:55;8.20;99.90
63960;DHT22;50136;51.374;0.096;2023-02-01T23:41:58;8.30;99.90
63960;DHT22;50136;51.374;0.096;2023-02-01T23:52:00;8.40;99.90
